createdAt,value
2022-08-11T00:01:04.773Z,99.90
2022-08-11T00:03:42.338Z,99.90
2022-08-11T00:06:10.243Z,99.90
2022-08-11T00:08:36.988Z,99.90
2022-08-11T00:11:06.771Z,99.90
2022-08-11T00:13:42.527Z,99.90
2022-08-11T00:16:27.380Z,99.90
2022-08-11T00:18:57.841Z,99.90
2022-08-11T00:21:54.730Z,99.90
2022-08-11T00:24:12.602Z,99.90
2022-08-11T00:26:39.329Z,99.90
2022-08-11T00:29:12.448Z,99.90
2022-08-11T00:31:39.237Z,99.90
2022-08-11T00:34:10.748Z,99.90
2022-08-11T00:36:48.680Z,99.90
2022-08-11T00:39:16.261Z,99.90
2022-08-11T00:42:14.102Z,99.90
2022-08-11T00:45:02.817Z,99.90
2022-08-11T00:47:33.201Z,99.90
2022-08-11T00:50:22.974Z,99.90
2022-08-11T00:52:55.788Z,99.90
2022-08-11T00:55:40.880Z,99.90
2022-08-11T00:58:22.735Z,99.90
2022-08-11T01:01:08.037Z,99.90
2022-08-11T01:03:59.473Z,99.90
2022-08-11T01:06:55.913Z,99.90
2022-08-11T01:09:52.042Z,99.90
2022-08-11T01:12:24.679Z,99.90
2022-08-11T01:15:06.818Z,99.90
2022-08-11T01:18:07.582Z,99.90
2022-08-11T01:20:49.430Z,99.90
2022-08-11T01:23:34.125Z,99.90
2022-08-11T01:26:48.321Z,99.90
2022-08-11T01:29:55.797Z,99.90
2022-08-11T01:32:44.206Z,99.90
2022-08-11T01:35:35.942Z,99.90
2022-08-11T01:38:19.440Z,99.90
2022-08-11T01:41:23.870Z,99.90
2022-08-11T01:44:31.759Z,99.90
2022-08-11T01:47:52.724Z,99.90
2022-08-11T01:50:46.527Z,99.90
2022-08-11T01:53:31.211Z,99.90
2022-08-11T01:56:22.426Z,99.90
2022-08-11T01:59:23.387Z,99.90
2022-08-11T02:02:43.434Z,99.90
2022-08-11T02:05:37.837Z,99.90
2022-08-11T02:08:33.497Z,99.90
2022-08-11T02:11:31.613Z,99.90
2022-08-11T02:14:39.839Z,99.90
2022-08-11T02:17:23.250Z,99.90
2022-08-11T02:20:13.801Z,99.90
2022-08-11T02:23:23.917Z,99.90
2022-08-11T02:26:23.549Z,99.90
2022-08-11T02:29:13.832Z,99.90
2022-08-11T02:32:30.286Z,99.90
2022-08-11T02:35:14.793Z,99.90
2022-08-11T02:37:45.259Z,99.90
2022-08-11T02:40:20.996Z,99.90
2022-08-11T02:43:04.816Z,99.90
2022-08-11T02:45:54.726Z,99.90
2022-08-11T02:48:43.330Z,99.90
2022-08-11T02:51:25.003Z,99.90
2022-08-11T02:53:58.003Z,99.90
2022-08-11T02:56:52.111Z,99.90
2022-08-11T02:59:52.357Z,99.90
2022-08-11T03:02:45.846Z,99.90
2022-08-11T03:05:17.665Z,99.90
2022-08-11T03:08:22.550Z,99.90
2022-08-11T03:11:39.439Z,99.90
2022-08-11T03:14:44.486Z,99.90
2022-08-11T03:17:29.678Z,99.90
2022-08-11T03:20:22.024Z,99.90
2022-08-11T03:22:52.773Z,99.90
2022-08-11T03:25:31.669Z,99.90
2022-08-11T03:28:19.995Z,99.90
2022-08-11T03:31:12.578Z,99.90
2022-08-11T03:34:06.731Z,99.90
2022-08-11T03:37:38.532Z,99.90
2022-08-11T03:40:05.651Z,99.90
2022-08-11T03:42:58.673Z,99.90
2022-08-11T03:45:28.653Z,99.90
2022-08-11T03:48:17.128Z,99.90
2022-08-11T03:50:51.876Z,99.90
2022-08-11T03:53:54.733Z,99.90
2022-08-11T03:56:35.491Z,99.90
2022-08-11T03:59:05.211Z,99.90
2022-08-11T04:01:56.967Z,99.90
2022-08-11T04:05:01.487Z,99.90
2022-08-11T04:08:02.207Z,99.90
2022-08-11T04:10:47.652Z,99.90
2022-08-11T04:13:36.138Z,99.90
2022-08-11T04:16:11.531Z,99.90
2022-08-11T04:19:11.120Z,99.90
2022-08-11T04:22:12.983Z,99.90
2022-08-11T04:24:58.344Z,99.90
2022-08-11T04:27:39.290Z,99.90
2022-08-11T04:30:12.003Z,99.90
2022-08-11T04:33:03.198Z,99.90
2022-08-11T04:35:47.324Z,99.90
2022-08-11T04:38:46.416Z,99.90
2022-08-11T04:41:19.221Z,99.90
2022-08-11T04:44:07.576Z,99.90
2022-08-11T04:47:08.643Z,99.90
2022-08-11T04:50:20.313Z,99.90
2022-08-11T04:53:38.025Z,99.90
2022-08-11T04:56:37.033Z,99.90
2022-08-11T04:59:46.333Z,99.90
2022-08-11T05:02:17.103Z,99.90
2022-08-11T05:05:18.581Z,99.90
2022-08-11T05:07:59.408Z,99.90
2022-08-11T05:10:43.330Z,99.90
2022-08-11T05:13:29.314Z,99.90
2022-08-11T05:16:16.328Z,99.90
2022-08-11T05:19:10.457Z,99.90
2022-08-11T05:21:57.420Z,99.90
2022-08-11T05:24:56.057Z,99.90
2022-08-11T05:27:42.634Z,99.90
2022-08-11T05:30:28.422Z,99.90
2022-08-11T05:33:25.555Z,99.90
2022-08-11T05:36:29.998Z,99.90
2022-08-11T05:39:18.376Z,99.90
2022-08-11T05:42:03.863Z,99.90
2022-08-11T05:44:49.103Z,99.90
2022-08-11T05:47:44.805Z,99.90
2022-08-11T05:50:33.127Z,99.90
2022-08-11T05:53:20.699Z,99.90
2022-08-11T05:56:06.112Z,99.90
2022-08-11T05:58:42.382Z,99.90
2022-08-11T06:01:36.242Z,99.90
2022-08-11T06:04:16.196Z,99.90
2022-08-11T06:07:04.080Z,99.90
2022-08-11T06:09:35.438Z,99.90
2022-08-11T06:12:32.428Z,99.90
2022-08-11T06:15:05.835Z,99.90
2022-08-11T06:17:39.086Z,99.90
2022-08-11T06:20:11.792Z,99.90
2022-08-11T06:22:39.451Z,99.90
2022-08-11T06:25:07.087Z,99.90
2022-08-11T06:27:35.724Z,99.90
2022-08-11T06:30:03.895Z,99.90
2022-08-11T06:32:36.112Z,99.90
2022-08-11T06:35:19.062Z,99.90
2022-08-11T06:38:12.772Z,99.90
2022-08-11T06:41:10.297Z,99.90
2022-08-11T06:43:56.119Z,99.90
2022-08-11T06:46:39.663Z,99.90
2022-08-11T06:49:27.434Z,99.90
2022-08-11T06:52:32.089Z,99.90
2022-08-11T06:54:57.222Z,99.90
2022-08-11T06:57:42.637Z,99.90
2022-08-11T07:00:28.611Z,99.90
2022-08-11T07:03:19.693Z,99.90
2022-08-11T07:05:53.495Z,99.90
2022-08-11T07:09:13.913Z,99.90
2022-08-11T07:12:08.432Z,99.90
2022-08-11T07:14:54.151Z,99.90
2022-08-11T07:17:28.125Z,99.90
2022-08-11T07:20:17.446Z,99.90
2022-08-11T07:23:08.115Z,99.90
2022-08-11T07:25:55.266Z,99.90
2022-08-11T07:28:45.688Z,99.90
2022-08-11T07:31:16.974Z,99.90
2022-08-11T07:34:05.238Z,99.90
2022-08-11T07:36:38.708Z,99.90
2022-08-11T07:39:05.654Z,99.90
2022-08-11T07:41:34.264Z,99.90
2022-08-11T07:44:08.914Z,99.90
2022-08-11T07:47:00.901Z,99.90
2022-08-11T07:49:48.055Z,99.90
2022-08-11T07:52:27.302Z,99.90
2022-08-11T07:54:55.759Z,99.90
2022-08-11T07:57:46.097Z,99.90
2022-08-11T08:00:47.941Z,99.90
2022-08-11T08:03:37.379Z,99.90
2022-08-11T08:06:35.772Z,99.90
2022-08-11T08:09:22.970Z,99.90
2022-08-11T08:12:08.297Z,99.90
2022-08-11T08:14:53.710Z,99.90
2022-08-11T08:17:40.032Z,99.90
2022-08-11T08:20:10.480Z,99.90
2022-08-11T08:22:39.461Z,99.90
2022-08-11T08:25:07.804Z,99.90
2022-08-11T08:27:38.609Z,99.90
2022-08-11T08:30:25.574Z,99.90
2022-08-11T08:32:52.324Z,99.90
2022-08-11T08:35:19.363Z,99.90
2022-08-11T08:37:47.693Z,99.90
2022-08-11T08:40:14.784Z,99.90
2022-08-11T08:42:51.697Z,99.90
2022-08-11T08:45:18.658Z,99.90
2022-08-11T08:47:52.581Z,99.90
2022-08-11T08:50:27.904Z,99.90
2022-08-11T08:52:58.732Z,99.90
2022-08-11T08:55:25.535Z,99.90
2022-08-11T08:57:52.707Z,99.90
2022-08-11T09:00:23.419Z,99.90
2022-08-11T09:02:50.781Z,99.90
2022-08-11T09:05:18.501Z,99.90
2022-08-11T09:07:47.580Z,99.90
2022-08-11T09:10:17.283Z,99.90
2022-08-11T09:12:44.229Z,99.90
2022-08-11T09:15:12.069Z,99.90
2022-08-11T09:17:47.304Z,99.90
2022-08-11T09:20:23.821Z,99.90
2022-08-11T09:24:08.843Z,99.90
2022-08-11T09:26:19.133Z,99.90
2022-08-11T09:28:47.181Z,99.50
2022-08-11T09:31:14.866Z,99.40
2022-08-11T09:33:43.088Z,98.30
2022-08-11T09:36:28.681Z,97.90
2022-08-11T09:39:21.976Z,96.70
2022-08-11T09:42:01.130Z,96.60
2022-08-11T09:44:48.775Z,96.40
2022-08-11T09:47:26.837Z,96.20
2022-08-11T09:50:02.731Z,96.10
2022-08-11T09:52:36.721Z,96.10
2022-08-11T09:55:11.101Z,96.20
2022-08-11T09:58:04.012Z,96.00
2022-08-11T10:00:40.326Z,95.80
2022-08-11T10:03:13.736Z,94.80
2022-08-11T10:05:59.019Z,93.10
2022-08-11T10:08:29.146Z,92.90
2022-08-11T10:10:56.199Z,91.90
2022-08-11T10:14:30.448Z,91.20
2022-08-11T10:16:15.295Z,91.30
2022-08-11T10:18:51.429Z,90.00
2022-08-11T10:21:24.383Z,89.80
2022-08-11T10:24:29.742Z,90.00
2022-08-11T10:27:00.632Z,90.20
2022-08-11T10:29:49.789Z,90.30
2022-08-11T10:32:58.631Z,89.90
2022-08-11T10:35:28.737Z,88.70
2022-08-11T10:38:15.834Z,88.40
2022-08-11T10:41:07.255Z,88.90
2022-08-11T10:44:01.602Z,89.00
2022-08-11T10:46:40.428Z,89.20
2022-08-11T10:49:07.207Z,87.90
2022-08-11T10:51:53.797Z,86.40
2022-08-11T10:54:40.523Z,85.80
2022-08-11T10:57:25.928Z,85.70
2022-08-11T10:59:56.165Z,84.70
2022-08-11T11:02:23.066Z,84.50
2022-08-11T11:04:53.459Z,83.30
2022-08-11T11:07:25.226Z,82.40
2022-08-11T11:10:02.323Z,81.20
2022-08-11T11:13:09.618Z,78.90
2022-08-11T11:15:55.456Z,76.80
2022-08-11T11:18:30.269Z,75.70
2022-08-11T11:20:57.898Z,76.10
2022-08-11T11:23:36.311Z,76.00
2022-08-11T11:26:27.102Z,75.80
2022-08-11T11:29:00.782Z,75.30
2022-08-11T11:32:05.050Z,74.70
2022-08-11T11:34:53.298Z,73.50
2022-08-11T11:37:22.862Z,72.90
2022-08-11T11:39:49.836Z,71.10
2022-08-11T11:42:16.796Z,70.10
2022-08-11T11:44:44.847Z,68.70
2022-08-11T11:47:12.163Z,68.80
2022-08-11T11:49:40.357Z,68.50
2022-08-11T11:52:08.731Z,68.20
2022-08-11T11:54:36.718Z,67.80
2022-08-11T11:57:25.067Z,66.40
2022-08-11T12:00:10.446Z,65.60
2022-08-11T12:02:37.928Z,65.70
2022-08-11T12:05:05.500Z,65.70
2022-08-11T12:07:56.764Z,65.50
2022-08-11T12:10:33.321Z,65.50
2022-08-11T12:13:20.171Z,64.70
2022-08-11T12:16:34.852Z,62.80
2022-08-11T12:18:34.802Z,62.30
2022-08-11T12:21:03.160Z,62.60
2022-08-11T12:23:48.590Z,63.10
2022-08-11T12:26:33.908Z,63.30
2022-08-11T12:29:01.097Z,63.30
2022-08-11T12:31:32.319Z,63.10
2022-08-11T12:34:03.698Z,62.30
2022-08-11T12:36:33.592Z,61.70
2022-08-11T12:39:00.420Z,61.50
2022-08-11T12:41:56.817Z,61.40
2022-08-11T12:44:45.498Z,61.40
2022-08-11T12:47:13.766Z,60.30
2022-08-11T12:50:03.156Z,60.40
2022-08-11T12:52:34.002Z,60.20
2022-08-11T12:55:06.567Z,59.30
2022-08-11T12:57:58.537Z,59.50
2022-08-11T13:00:44.441Z,59.00
2022-08-11T13:03:30.487Z,58.20
2022-08-11T13:05:59.788Z,57.70
2022-08-11T13:08:27.885Z,58.50
2022-08-11T13:11:16.006Z,58.70
2022-08-11T13:13:55.353Z,58.60
2022-08-11T13:16:25.603Z,58.10
2022-08-11T13:18:53.309Z,57.40
2022-08-11T13:21:21.459Z,56.50
2022-08-11T13:24:01.540Z,56.30
2022-08-11T13:26:47.101Z,55.80
2022-08-11T13:29:26.395Z,55.60
2022-08-11T13:31:56.113Z,54.70
2022-08-11T13:34:24.276Z,54.60
2022-08-11T13:36:53.847Z,54.30
2022-08-11T13:39:25.306Z,54.50
2022-08-11T13:41:57.668Z,54.70
2022-08-11T13:44:27.161Z,55.00
2022-08-11T13:46:56.570Z,55.30
2022-08-11T13:49:23.351Z,55.00
2022-08-11T13:51:50.105Z,55.10
2022-08-11T13:54:20.202Z,55.10
2022-08-11T13:56:49.106Z,55.10
2022-08-11T13:59:20.241Z,55.70
2022-08-11T14:02:20.932Z,56.00
2022-08-11T14:04:51.106Z,56.70
2022-08-11T14:07:22.830Z,56.60
2022-08-11T14:09:55.578Z,56.90
2022-08-11T14:12:46.717Z,57.50
2022-08-11T14:15:19.775Z,57.30
2022-08-11T14:17:56.873Z,57.70
2022-08-11T14:20:39.131Z,58.00
2022-08-11T14:23:10.840Z,57.90
2022-08-11T14:26:01.909Z,58.10
2022-08-11T14:28:36.192Z,58.30
2022-08-11T14:31:08.475Z,58.20
2022-08-11T14:33:59.833Z,58.80
2022-08-11T14:36:25.986Z,59.10
2022-08-11T14:38:54.039Z,59.40
2022-08-11T14:42:07.499Z,59.90
2022-08-11T14:44:45.697Z,60.40
2022-08-11T14:47:23.691Z,61.00
2022-08-11T14:50:10.233Z,61.10
2022-08-11T14:52:41.179Z,61.80
2022-08-11T14:55:27.163Z,62.10
2022-08-11T14:58:04.586Z,62.00
2022-08-11T15:00:32.566Z,62.10
2022-08-11T15:03:12.026Z,62.10
2022-08-11T15:05:57.705Z,62.10
2022-08-11T15:08:54.716Z,62.20
2022-08-11T15:11:48.380Z,62.10
2022-08-11T15:14:35.975Z,62.80
2022-08-11T15:17:08.564Z,62.70
2022-08-11T15:19:40.900Z,62.90
2022-08-11T15:22:36.350Z,62.90
2022-08-11T15:25:03.287Z,63.20
2022-08-11T15:27:48.644Z,64.20
2022-08-11T15:30:34.393Z,64.80
2022-08-11T15:33:25.171Z,65.00
2022-08-11T15:36:11.511Z,65.20
2022-08-11T15:39:02.877Z,65.30
2022-08-11T15:42:21.564Z,65.20
2022-08-11T15:45:12.091Z,65.40
2022-08-11T15:47:42.216Z,65.70
2022-08-11T15:50:13.787Z,65.80
2022-08-11T15:52:47.471Z,65.50
2022-08-11T15:55:14.218Z,65.30
2022-08-11T15:57:59.575Z,65.50
2022-08-11T16:00:45.050Z,65.80
2022-08-11T16:03:54.375Z,66.10
2022-08-11T16:06:17.137Z,66.50
2022-08-11T16:08:44.388Z,66.40
2022-08-11T16:11:11.362Z,66.50
2022-08-11T16:13:40.929Z,66.70
2022-08-11T16:16:14.601Z,66.50
2022-08-11T16:18:59.699Z,66.70
2022-08-11T16:21:36.389Z,66.80
2022-08-11T16:24:07.014Z,66.90
2022-08-11T16:27:11.435Z,66.80
2022-08-11T16:29:21.640Z,66.70
2022-08-11T16:32:08.338Z,66.70
2022-08-11T16:34:53.767Z,66.90
2022-08-11T16:37:39.424Z,67.10
2022-08-11T16:40:06.865Z,67.90
2022-08-11T16:43:09.163Z,67.40
2022-08-11T16:45:58.105Z,67.40
2022-08-11T16:48:33.474Z,67.50
2022-08-11T16:51:04.993Z,67.80
2022-08-11T16:54:00.355Z,67.90
2022-08-11T16:56:42.460Z,67.90
2022-08-11T16:59:39.023Z,68.20
2022-08-11T17:02:08.075Z,68.20
2022-08-11T17:05:09.022Z,68.50
2022-08-11T17:07:55.958Z,68.70
2022-08-11T17:11:13.707Z,68.70
2022-08-11T17:13:48.984Z,68.80
2022-08-11T17:16:27.535Z,69.00
2022-08-11T17:19:01.878Z,68.80
2022-08-11T17:21:35.758Z,68.90
2022-08-11T17:24:14.294Z,69.10
2022-08-11T17:26:59.025Z,69.10
2022-08-11T17:29:55.113Z,69.20
2022-08-11T17:33:02.591Z,69.40
2022-08-11T17:35:32.670Z,69.60
2022-08-11T17:38:17.283Z,69.70
2022-08-11T17:41:08.908Z,70.00
2022-08-11T17:43:54.414Z,70.00
2022-08-11T17:46:39.802Z,70.30
2022-08-11T17:49:10.162Z,70.40
2022-08-11T17:51:56.676Z,70.50
2022-08-11T17:54:42.580Z,70.70
2022-08-11T17:57:28.989Z,70.80
2022-08-11T17:59:57.645Z,71.00
2022-08-11T18:02:54.359Z,71.10
2022-08-11T18:05:24.394Z,71.10
2022-08-11T18:08:12.358Z,71.00
2022-08-11T18:10:58.076Z,71.10
2022-08-11T18:13:46.088Z,71.20
2022-08-11T18:16:31.511Z,71.20
2022-08-11T18:19:17.045Z,71.20
2022-08-11T18:22:14.534Z,71.30
2022-08-11T18:25:12.897Z,71.30
2022-08-11T18:28:01.179Z,71.20
2022-08-11T18:30:46.774Z,71.30
2022-08-11T18:36:42.819Z,71.50
2022-08-11T18:39:29.741Z,71.80
2022-08-11T18:42:19.600Z,71.90
2022-08-11T18:45:14.738Z,72.20
2022-08-11T18:48:00.107Z,72.40
2022-08-11T18:50:48.482Z,72.50
2022-08-11T18:53:44.785Z,72.90
2022-08-11T18:56:30.145Z,73.30
2022-08-11T18:59:15.416Z,73.70
2022-08-11T19:02:00.932Z,73.90
2022-08-11T19:04:46.301Z,74.20
2022-08-11T19:07:31.627Z,74.50
2022-08-11T19:10:17.105Z,74.90
2022-08-11T19:13:02.482Z,74.90
2022-08-11T19:15:47.912Z,74.90
2022-08-11T19:18:36.686Z,75.00
2022-08-11T19:21:22.618Z,75.40
2022-08-11T19:24:10.968Z,76.10
2022-08-11T19:26:56.583Z,76.30
2022-08-11T19:30:07.554Z,77.00
2022-08-11T19:32:48.317Z,77.30
2022-08-11T19:35:34.201Z,77.40
2022-08-11T19:38:19.499Z,77.50
2022-08-11T19:41:04.909Z,77.50
2022-08-11T19:43:50.319Z,77.90
2022-08-11T19:46:38.243Z,77.70
2022-08-11T19:49:23.750Z,77.60
2022-08-11T19:52:09.192Z,77.50
2022-08-11T19:54:54.751Z,77.50
2022-08-11T19:57:41.303Z,77.60
2022-08-11T20:00:30.400Z,77.40
2022-08-11T20:03:17.859Z,77.40
2022-08-11T20:06:03.272Z,77.30
2022-08-11T20:08:48.688Z,77.60
2022-08-11T20:11:34.125Z,77.40
2022-08-11T20:14:19.686Z,77.50
2022-08-11T20:17:05.589Z,77.70
2022-08-11T20:19:54.962Z,78.00
2022-08-11T20:22:41.448Z,78.10
2022-08-11T20:25:27.028Z,78.30
2022-08-11T20:28:12.531Z,78.60
2022-08-11T20:30:57.928Z,78.70
2022-08-11T20:33:43.389Z,78.90
2022-08-11T20:36:28.851Z,79.10
2022-08-11T20:39:14.292Z,79.30
2022-08-11T20:41:59.781Z,79.70
2022-08-11T20:44:45.534Z,79.80
2022-08-11T20:47:30.879Z,80.00
2022-08-11T20:50:19.362Z,80.30
2022-08-11T20:53:05.518Z,81.20
2022-08-11T20:55:53.657Z,80.80
2022-08-11T21:01:46.175Z,81.40
2022-08-11T21:04:32.543Z,81.70
2022-08-11T21:07:28.324Z,81.90
2022-08-11T21:10:23.289Z,82.10
2022-08-11T21:13:26.384Z,82.40
2022-08-11T21:16:25.214Z,82.70
2022-08-11T21:20:01.779Z,82.90
2022-08-11T21:22:59.037Z,83.20
2022-08-11T21:25:59.125Z,83.60
2022-08-11T21:28:45.188Z,83.90
2022-08-11T21:31:30.748Z,84.20
2022-08-11T21:34:16.261Z,84.60
2022-08-11T21:37:01.883Z,85.00
2022-08-11T21:39:47.600Z,85.10
2022-08-11T21:42:33.102Z,85.50
2022-08-11T21:45:18.523Z,85.90
2022-08-11T21:48:04.073Z,86.30
2022-08-11T21:50:49.398Z,86.60
2022-08-11T21:53:34.659Z,87.10
2022-08-11T21:56:20.405Z,87.50
2022-08-11T21:59:06.797Z,87.80
2022-08-11T22:01:52.987Z,88.20
2022-08-11T22:04:38.482Z,88.60
2022-08-11T22:07:23.657Z,89.10
2022-08-11T22:10:40.957Z,89.50
2022-08-11T22:13:14.273Z,90.10
2022-08-11T22:15:59.514Z,90.30
2022-08-11T22:18:44.788Z,90.50
2022-08-11T22:21:56.965Z,90.70
2022-08-11T22:24:35.832Z,90.90
2022-08-11T22:27:22.978Z,91.20
2022-08-11T22:30:08.298Z,91.30
2022-08-11T22:32:54.249Z,91.60
2022-08-11T22:35:39.526Z,91.80
2022-08-11T22:38:25.111Z,92.10
2022-08-11T22:41:10.448Z,92.30
2022-08-11T22:43:55.999Z,92.40
2022-08-11T22:46:41.509Z,92.60
2022-08-11T22:49:26.944Z,92.80
2022-08-11T22:52:12.187Z,93.10
2022-08-11T22:54:57.722Z,93.30
2022-08-11T22:57:58.701Z,93.60
2022-08-11T23:00:47.047Z,93.80
2022-08-11T23:03:37.205Z,94.10
2022-08-11T23:06:23.758Z,94.60
2022-08-11T23:09:09.073Z,95.20
2022-08-11T23:12:06.206Z,95.20
2022-08-11T23:14:53.846Z,95.60
2022-08-11T23:17:39.538Z,96.00
2022-08-11T23:20:29.948Z,96.30
2022-08-11T23:23:27.524Z,96.70
2022-08-11T23:26:12.908Z,97.10
2022-08-11T23:28:59.262Z,97.40
2022-08-11T23:31:50.609Z,97.70
2022-08-11T23:35:04.193Z,97.90
2022-08-11T23:37:45.070Z,98.10
2022-08-11T23:40:30.186Z,98.40
2022-08-11T23:43:16.665Z,98.70
2022-08-11T23:46:01.856Z,99.00
2022-08-11T23:48:47.232Z,99.20
2022-08-11T23:51:40.535Z,99.50
2022-08-11T23:54:28.333Z,99.90
2022-08-11T23:57:14.304Z,99.90
2022-08-11T23:59:59.809Z,99.90
